sensor_id;sensor_type;location;lat;lon;timestamp;pressure;altitude;pressure_sealevel;temperature;humidity
16544;BME280;8384;47.996;7.786;2023-07-29T00:01:06;98342.00;;;17.88;100.00
16544;BME280;8384;47.996;7.786;2023-07-29T00:03:32;98335.44;;;17.75;100.00
16544;BME280;8384;47.996;7.786;2023-07-29T00:05:57;98332.34;;;17.76;100.00
16544;BME280;8384;47.996;7.786;2023-07-29T00:08:23;98338.38;;;17.78;100.00
16544;BME280;8384;47.996;7.786;2023-07-29T00:10:48;98337.25;;;17.79;100.00
16544;BME280;8384;47.996;7.786;2023-07-29T00:13:13;98334.66;;;17.74;100.00
16544;BME280;8384;47.996;7.786;2023-07-29T00:15:39;98335.09;;;17.67;100.00
16544;BME280;8384;47.996;7.786;2023-07-29T00:18:04;98325.66;;;17.68;100.00
16544;BME280;8384;47.996;7.786;2023-07-29T00:20:29;98324.53;;;17.69;100.00
16544;BME280;8384;47.996;7.786;2023-07-29T00:22:54;98319.84;;;17.70;100.00
16544;BME280;8384;47.996;7.786;2023-07-29T00:25:21;98335.13;;;17.76;100.00
16544;BME280;8384;47.996;7.786;2023-07-29T00:27:46;98326.66;;;17.73;100.00
16544;BME280;8384;47.996;7.786;2023-07-29T00:30:12;98333.47;;;17.66;100.00
16544;BME280;8384;47.996;7.786;2023-07-29T00:32:37;98325.16;;;17.66;100.00
16544;BME280;8384;47.996;7.786;2023-07-29T00:35:02;98296.47;;;17.45;100.00
16544;BME280;8384;47.996;7.786;2023-07-29T00:37:29;98317.84;;;17.62;100.00
16544;BME280;8384;47.996;7.786;2023-07-29T00:39:55;98322.06;;;17.59;100.00
16544;BME280;8384;47.996;7.786;2023-07-29T00:42:20;98319.13;;;17.64;100.00
16544;BME280;8384;47.996;7.786;2023-07-29T00:44:45;98305.81;;;17.66;100.00
16544;BME280;8384;47.996;7.786;2023-07-29T00:47:11;98311.34;;;17.66;100.00
16544;BME280;8384;47.996;7.786;2023-07-29T00:49:36;98320.59;;;17.62;100.00
16544;BME280;8384;47.996;7.786;2023-07-29T00:52:02;98306.63;;;17.58;100.00
16544;BME280;8384;47.996;7.786;2023-07-29T00:54:27;98299.75;;;17.56;100.00
16544;BME280;8384;47.996;7.786;2023-07-29T00:56:52;98320.28;;;17.63;100.00
16544;BME280;8384;47.996;7.786;2023-07-29T00:59:18;98325.97;;;17.58;100.00
16544;BME280;8384;47.996;7.786;2023-07-29T01:01:43;98311.13;;;17.45;100.00
16544;BME280;8384;47.996;7.786;2023-07-29T01:04:09;98311.31;;;17.58;100.00
16544;BME280;8384;47.996;7.786;2023-07-29T01:12:48;98305.31;;;17.64;100.00
16544;BME280;8384;47.996;7.786;2023-07-29T01:15:18;98307.44;;;17.67;100.00
16544;BME280;8384;47.996;7.786;2023-07-29T01:17:49;98305.00;;;17.57;100.00
16544;BME280;8384;47.996;7.786;2023-07-29T01:20:19;98279.63;;;17.55;100.00
16544;BME280;8384;47.996;7.786;2023-07-29T01:22:46;98283.47;;;17.45;100.00
16544;BME280;8384;47.996;7.786;2023-07-29T01:25:12;98302.06;;;17.62;100.00
16544;BME280;8384;47.996;7.786;2023-07-29T01:27:38;98302.06;;;17.62;100.00
16544;BME280;8384;47.996;7.786;2023-07-29T01:30:04;98312.84;;;17.32;100.00
16544;BME280;8384;47.996;7.786;2023-07-29T01:32:43;98304.56;;;17.32;100.00
16544;BME280;8384;47.996;7.786;2023-07-29T01:35:22;98305.69;;;17.31;100.00
16544;BME280;8384;47.996;7.786;2023-07-29T01:37:58;98314.31;;;17.38;100.00
16544;BME280;8384;47.996;7.786;2023-07-29T01:40:27;98289.44;;;17.38;100.00
16544;BME280;8384;47.996;7.786;2023-07-29T01:42:53;98298.50;;;17.62;100.00
16544;BME280;8384;47.996;7.786;2023-07-29T01:45:18;98305.81;;;17.66;100.00
16544;BME280;8384;47.996;7.786;2023-07-29T01:47:44;98306.66;;;17.67;100.00
16544;BME280;8384;47.996;7.786;2023-07-29T01:50:09;98290.38;;;17.65;100.00
16544;BME280;8384;47.996;7.786;2023-07-29T01:52:35;98300.31;;;17.75;100.00
16544;BME280;8384;47.996;7.786;2023-07-29T01:55:01;98304.38;;;17.69;100.00
16544;BME280;8384;47.996;7.786;2023-07-29T01:57:27;98304.53;;;17.73;100.00
16544;BME280;8384;47.996;7.786;2023-07-29T01:59:52;98273.94;;;17.60;100.00
16544;BME280;8384;47.996;7.786;2023-07-29T02:02:17;98293.13;;;17.65;100.00
16544;BME280;8384;47.996;7.786;2023-07-29T02:04:42;98294.75;;;17.66;100.00
16544;BME280;8384;47.996;7.786;2023-07-29T02:07:08;98297.19;;;17.59;100.00
16544;BME280;8384;47.996;7.786;2023-07-29T02:09:33;98288.69;;;17.47;100.00
16544;BME280;8384;47.996;7.786;2023-07-29T02:11:58;98299.47;;;17.57;100.00
16544;BME280;8384;47.996;7.786;2023-07-29T02:14:23;98283.59;;;17.31;100.00
16544;BME280;8384;47.996;7.786;2023-07-29T02:16:49;98300.28;;;17.26;100.00
16544;BME280;8384;47.996;7.786;2023-07-29T02:19:15;98293.00;;;17.30;100.00
16544;BME280;8384;47.996;7.786;2023-07-29T02:21:40;98281.91;;;17.21;100.00
16544;BME280;8384;47.996;7.786;2023-07-29T02:24:05;98305.69;;;17.31;100.00
16544;BME280;8384;47.996;7.786;2023-07-29T02:26:31;98302.41;;;17.29;100.00
16544;BME280;8384;47.996;7.786;2023-07-29T02:28:56;98304.06;;;17.30;100.00
16544;BME280;8384;47.996;7.786;2023-07-29T02:31:23;98293.66;;;17.36;100.00
16544;BME280;8384;47.996;7.786;2023-07-29T02:33:49;98284.34;;;17.63;100.00
16544;BME280;8384;47.996;7.786;2023-07-29T02:36:15;98279.31;;;17.65;100.00
16544;BME280;8384;47.996;7.786;2023-07-29T02:38:41;98285.97;;;17.64;100.00
16544;BME280;8384;47.996;7.786;2023-07-29T02:41:07;98264.31;;;17.49;100.00
16544;BME280;8384;47.996;7.786;2023-07-29T02:43:34;98255.66;;;17.42;100.00
16544;BME280;8384;47.996;7.786;2023-07-29T02:46:00;98281.78;;;17.35;100.00
16544;BME280;8384;47.996;7.786;2023-07-29T02:48:25;98276.09;;;17.32;100.00
16544;BME280;8384;47.996;7.786;2023-07-29T02:50:50;98272.38;;;17.05;100.00
16544;BME280;8384;47.996;7.786;2023-07-29T02:53:16;98269.44;;;17.01;100.00
16544;BME280;8384;47.996;7.786;2023-07-29T02:55:41;98265.78;;;17.15;100.00
16544;BME280;8384;47.996;7.786;2023-07-29T02:58:06;98259.75;;;17.13;100.00
16544;BME280;8384;47.996;7.786;2023-07-29T03:00:32;98264.69;;;17.24;100.00
16544;BME280;8384;47.996;7.786;2023-07-29T03:02:58;98268.09;;;17.21;100.00
16544;BME280;8384;47.996;7.786;2023-07-29T03:05:24;98263.47;;;17.08;100.00
16544;BME280;8384;47.996;7.786;2023-07-29T03:07:49;98265.91;;;17.09;100.00
16544;BME280;8384;47.996;7.786;2023-07-29T03:10:14;98267.13;;;16.94;100.00
16544;BME280;8384;47.996;7.786;2023-07-29T03:12:40;98260.72;;;16.85;100.00
16544;BME280;8384;47.996;7.786;2023-07-29T03:15:06;98264.59;;;16.84;100.00
16544;BME280;8384;47.996;7.786;2023-07-29T03:17:31;98255.44;;;16.75;100.00
16544;BME280;8384;47.996;7.786;2023-07-29T03:19:56;98253.19;;;16.77;100.00
16544;BME280;8384;47.996;7.786;2023-07-29T03:22:22;98254.13;;;16.72;100.00
16544;BME280;8384;47.996;7.786;2023-07-29T03:24:47;98250.28;;;16.82;100.00
16544;BME280;8384;47.996;7.786;2023-07-29T03:27:12;98229.47;;;16.76;100.00
16544;BME280;8384;47.996;7.786;2023-07-29T03:29:39;98242.13;;;17.00;100.00
16544;BME280;8384;47.996;7.786;2023-07-29T03:32:04;98240.84;;;16.97;100.00
16544;BME280;8384;47.996;7.786;2023-07-29T03:34:30;98242.47;;;16.98;100.00
16544;BME280;8384;47.996;7.786;2023-07-29T03:36:55;98251.34;;;16.95;100.00
16544;BME280;8384;47.996;7.786;2023-07-29T03:39:20;98247.03;;;16.80;100.00
16544;BME280;8384;47.996;7.786;2023-07-29T03:41:46;98258.66;;;16.68;100.00
16544;BME280;8384;47.996;7.786;2023-07-29T03:44:11;98249.81;;;16.57;100.00
16544;BME280;8384;47.996;7.786;2023-07-29T03:46:36;98247.94;;;16.67;100.00
16544;BME280;8384;47.996;7.786;2023-07-29T03:49:02;98234.56;;;16.60;100.00
16544;BME280;8384;47.996;7.786;2023-07-29T03:51:28;98234.56;;;16.60;100.00
16544;BME280;8384;47.996;7.786;2023-07-29T03:53:53;98244.72;;;16.73;100.00
16544;BME280;8384;47.996;7.786;2023-07-29T03:56:18;98252.38;;;16.76;100.00
16544;BME280;8384;47.996;7.786;2023-07-29T03:58:46;98244.16;;;16.85;100.00
16544;BME280;8384;47.996;7.786;2023-07-29T04:01:13;98240.00;;;16.97;100.00
16544;BME280;8384;47.996;7.786;2023-07-29T04:03:38;98248.28;;;16.97;100.00
16544;BME280;8384;47.996;7.786;2023-07-29T04:06:03;98236.53;;;16.91;100.00
16544;BME280;8384;47.996;7.786;2023-07-29T04:08:29;98245.78;;;17.09;100.00
16544;BME280;8384;47.996;7.786;2023-07-29T04:10:54;98247.06;;;17.12;100.00
16544;BME280;8384;47.996;7.786;2023-07-29T04:13:19;98246.56;;;17.09;100.00
16544;BME280;8384;47.996;7.786;2023-07-29T04:15:45;98247.22;;;17.06;100.00
16544;BME280;8384;47.996;7.786;2023-07-29T04:18:10;98249.50;;;17.04;100.00
16544;BME280;8384;47.996;7.786;2023-07-29T04:20:35;98242.47;;;16.98;100.00
16544;BME280;8384;47.996;7.786;2023-07-29T04:23:01;98237.63;;;17.04;100.00
16544;BME280;8384;47.996;7.786;2023-07-29T04:25:27;98247.06;;;17.12;100.00
16544;BME280;8384;47.996;7.786;2023-07-29T04:27:52;98262.28;;;17.32;100.00
16544;BME280;8384;47.996;7.786;2023-07-29T04:30:18;98254.28;;;17.21;100.00
16544;BME280;8384;47.996;7.786;2023-07-29T04:32:43;98263.13;;;17.32;100.00
16544;BME280;8384;47.996;7.786;2023-07-29T04:35:10;98260.56;;;17.45;100.00
16544;BME280;8384;47.996;7.786;2023-07-29T04:37:35;98271.81;;;17.57;100.00
16544;BME280;8384;47.996;7.786;2023-07-29T04:40:00;98274.47;;;17.71;100.00
16544;BME280;8384;47.996;7.786;2023-07-29T04:42:25;98270.91;;;17.88;100.00
16544;BME280;8384;47.996;7.786;2023-07-29T04:44:51;98278.19;;;17.75;100.00
16544;BME280;8384;47.996;7.786;2023-07-29T04:47:16;98280.81;;;17.80;100.00
16544;BME280;8384;47.996;7.786;2023-07-29T04:49:41;98269.59;;;17.77;100.00
16544;BME280;8384;47.996;7.786;2023-07-29T04:52:07;98276.34;;;18.02;100.00
16544;BME280;8384;47.996;7.786;2023-07-29T04:54:32;98277.53;;;18.19;100.00
16544;BME280;8384;47.996;7.786;2023-07-29T04:56:57;98284.69;;;18.28;100.00
16544;BME280;8384;47.996;7.786;2023-07-29T04:59:22;98271.03;;;18.32;100.00
16544;BME280;8384;47.996;7.786;2023-07-29T05:01:48;98307.66;;;18.55;100.00
16544;BME280;8384;47.996;7.786;2023-07-29T05:04:13;98306.38;;;18.62;100.00
16544;BME280;8384;47.996;7.786;2023-07-29T05:06:39;98298.06;;;18.62;100.00
16544;BME280;8384;47.996;7.786;2023-07-29T05:09:24;98287.28;;;18.69;100.00
16544;BME280;8384;47.996;7.786;2023-07-29T05:11:50;98306.84;;;18.90;100.00
16544;BME280;8384;47.996;7.786;2023-07-29T05:14:17;98296.56;;;18.82;100.00
16544;BME280;8384;47.996;7.786;2023-07-29T05:16:43;98306.03;;;18.89;100.00
16544;BME280;8384;47.996;7.786;2023-07-29T05:19:08;98314.66;;;18.88;100.00
16544;BME280;8384;47.996;7.786;2023-07-29T05:21:34;98317.59;;;19.09;100.00
16544;BME280;8384;47.996;7.786;2023-07-29T05:23:59;98312.53;;;19.11;100.00
16544;BME280;8384;47.996;7.786;2023-07-29T05:26:25;98330.28;;;19.19;100.00
16544;BME280;8384;47.996;7.786;2023-07-29T05:28:50;98313.81;;;19.31;99.29
16544;BME280;8384;47.996;7.786;2023-07-29T05:31:15;98325.03;;;19.35;99.22
16544;BME280;8384;47.996;7.786;2023-07-29T05:33:40;98326.00;;;19.39;100.00
16544;BME280;8384;47.996;7.786;2023-07-29T05:36:06;98310.34;;;19.34;100.00
16544;BME280;8384;47.996;7.786;2023-07-29T05:38:31;98318.22;;;19.32;100.00
16544;BME280;8384;47.996;7.786;2023-07-29T05:40:56;98323.41;;;19.34;100.00
16544;BME280;8384;47.996;7.786;2023-07-29T05:43:24;98329.09;;;19.38;100.00
16544;BME280;8384;47.996;7.786;2023-07-29T05:45:49;98318.00;;;19.46;100.00
16544;BME280;8384;47.996;7.786;2023-07-29T05:48:16;98328.19;;;19.63;98.44
16544;BME280;8384;47.996;7.786;2023-07-29T05:50:41;98333.38;;;19.74;97.27
16544;BME280;8384;47.996;7.786;2023-07-29T05:53:06;98327.97;;;19.77;97.85
16544;BME280;8384;47.996;7.786;2023-07-29T05:55:32;98318.81;;;19.86;96.49
16544;BME280;8384;47.996;7.786;2023-07-29T05:57:57;98334.66;;;19.85;96.92
16544;BME280;8384;47.996;7.786;2023-07-29T06:00:22;98339.84;;;19.87;96.56
16544;BME280;8384;47.996;7.786;2023-07-29T06:02:48;98341.59;;;20.00;95.35
16544;BME280;8384;47.996;7.786;2023-07-29T06:05:13;98339.16;;;19.99;95.23
16544;BME280;8384;47.996;7.786;2023-07-29T06:07:38;98344.84;;;20.11;94.67
16544;BME280;8384;47.996;7.786;2023-07-29T06:10:05;98336.50;;;20.11;93.50
16544;BME280;8384;47.996;7.786;2023-07-29T06:12:31;98339.34;;;20.23;93.46
16544;BME280;8384;47.996;7.786;2023-07-29T06:14:56;98346.19;;;20.26;92.76
16544;BME280;8384;47.996;7.786;2023-07-29T06:17:21;98338.56;;;20.23;93.68
16544;BME280;8384;47.996;7.786;2023-07-29T06:19:46;98340.97;;;20.25;93.48
16544;BME280;8384;47.996;7.786;2023-07-29T06:22:12;98330.00;;;20.28;92.20
16544;BME280;8384;47.996;7.786;2023-07-29T06:24:37;98350.28;;;20.29;93.11
16544;BME280;8384;47.996;7.786;2023-07-29T06:27:02;98345.56;;;20.20;93.21
16544;BME280;8384;47.996;7.786;2023-07-29T06:29:28;98343.41;;;20.26;93.57
16544;BME280;8384;47.996;7.786;2023-07-29T06:31:53;98343.34;;;20.14;93.96
16544;BME280;8384;47.996;7.786;2023-07-29T06:34:19;98350.41;;;20.02;96.17
16544;BME280;8384;47.996;7.786;2023-07-29T06:36:44;98358.50;;;20.16;97.47
16544;BME280;8384;47.996;7.786;2023-07-29T06:39:10;98387.16;;;19.90;100.00
16544;BME280;8384;47.996;7.786;2023-07-29T06:41:35;98365.47;;;19.84;100.00
16544;BME280;8384;47.996;7.786;2023-07-29T06:44:00;98337.59;;;19.24;100.00
16544;BME280;8384;47.996;7.786;2023-07-29T06:46:26;98376.06;;;19.25;100.00
16544;BME280;8384;47.996;7.786;2023-07-29T06:48:51;98359.59;;;18.85;100.00
16544;BME280;8384;47.996;7.786;2023-07-29T06:51:16;98338.25;;;18.59;100.00
16544;BME280;8384;47.996;7.786;2023-07-29T06:53:41;98355.53;;;18.82;100.00
16544;BME280;8384;47.996;7.786;2023-07-29T06:56:07;98364.22;;;18.98;100.00
16544;BME280;8384;47.996;7.786;2023-07-29T06:58:32;98360.44;;;18.94;100.00
16544;BME280;8384;47.996;7.786;2023-07-29T07:00:58;98366.78;;;19.21;100.00
16544;BME280;8384;47.996;7.786;2023-07-29T07:03:23;98365.78;;;19.34;100.00
16544;BME280;8384;47.996;7.786;2023-07-29T07:05:48;98355.84;;;19.25;100.00
16544;BME280;8384;47.996;7.786;2023-07-29T07:08:13;98354.88;;;19.29;100.00
16544;BME280;8384;47.996;7.786;2023-07-29T07:10:39;98364.47;;;19.41;100.00
16544;BME280;8384;47.996;7.786;2023-07-29T07:13:04;98344.78;;;19.25;100.00
16544;BME280;8384;47.996;7.786;2023-07-29T07:15:29;98363.41;;;19.72;100.00
16544;BME280;8384;47.996;7.786;2023-07-29T07:17:54;98363.78;;;19.53;100.00
16544;BME280;8384;47.996;7.786;2023-07-29T07:20:20;98356.25;;;19.62;100.00
16544;BME280;8384;47.996;7.786;2023-07-29T07:22:45;98357.72;;;19.68;100.00
16544;BME280;8384;47.996;7.786;2023-07-29T07:25:10;98362.63;;;20.01;100.00
16544;BME280;8384;47.996;7.786;2023-07-29T07:27:36;98355.53;;;20.21;100.00
16544;BME280;8384;47.996;7.786;2023-07-29T07:30:02;98365.47;;;20.22;100.00
16544;BME280;8384;47.996;7.786;2023-07-29T07:32:27;98365.34;;;20.19;100.00
16544;BME280;8384;47.996;7.786;2023-07-29T07:34:54;98363.16;;;20.55;100.00
16544;BME280;8384;47.996;7.786;2023-07-29T07:37:21;98362.63;;;20.61;100.00
16544;BME280;8384;47.996;7.786;2023-07-29T07:39:46;98360.72;;;20.74;99.24
16544;BME280;8384;47.996;7.786;2023-07-29T07:42:12;98346.88;;;20.95;98.49
16544;BME280;8384;47.996;7.786;2023-07-29T07:44:37;98344.97;;;21.21;96.87
16544;BME280;8384;47.996;7.786;2023-07-29T07:47:02;98358.38;;;21.40;96.91
16544;BME280;8384;47.996;7.786;2023-07-29T07:49:28;98361.13;;;21.61;98.41
16544;BME280;8384;47.996;7.786;2023-07-29T07:51:53;98367.50;;;21.74;97.22
16544;BME280;8384;47.996;7.786;2023-07-29T07:54:19;98359.75;;;22.05;91.08
16544;BME280;8384;47.996;7.786;2023-07-29T07:56:44;98360.00;;;22.24;90.47
16544;BME280;8384;47.996;7.786;2023-07-29T07:59:09;98361.97;;;22.36;88.48
16544;BME280;8384;47.996;7.786;2023-07-29T08:01:35;98361.59;;;22.62;87.29
16544;BME280;8384;47.996;7.786;2023-07-29T08:04:01;98360.34;;;22.47;87.54
16544;BME280;8384;47.996;7.786;2023-07-29T08:06:27;98364.28;;;22.46;83.14
16544;BME280;8384;47.996;7.786;2023-07-29T08:08:52;98361.72;;;22.54;83.35
16544;BME280;8384;47.996;7.786;2023-07-29T08:11:17;98366.38;;;22.37;85.25
16544;BME280;8384;47.996;7.786;2023-07-29T08:13:42;98364.06;;;22.64;81.49
16544;BME280;8384;47.996;7.786;2023-07-29T08:16:08;98379.84;;;22.35;82.45
16544;BME280;8384;47.996;7.786;2023-07-29T08:18:33;98356.03;;;22.25;83.84
16544;BME280;8384;47.996;7.786;2023-07-29T08:21:00;98381.47;;;22.61;84.84
16544;BME280;8384;47.996;7.786;2023-07-29T08:23:30;98365.91;;;22.47;82.72
16544;BME280;8384;47.996;7.786;2023-07-29T08:25:57;98350.47;;;22.00;82.70
16544;BME280;8384;47.996;7.786;2023-07-29T08:28:30;98361.41;;;21.93;84.16
16544;BME280;8384;47.996;7.786;2023-07-29T08:30:56;98380.88;;;22.55;84.13
16544;BME280;8384;47.996;7.786;2023-07-29T08:33:21;98381.41;;;22.86;80.75
16544;BME280;8384;47.996;7.786;2023-07-29T08:35:47;98380.81;;;22.80;79.75
16544;BME280;8384;47.996;7.786;2023-07-29T08:38:12;98368.47;;;22.53;80.72
16544;BME280;8384;47.996;7.786;2023-07-29T08:40:42;98378.53;;;22.57;79.26
16544;BME280;8384;47.996;7.786;2023-07-29T08:43:08;98367.16;;;22.75;78.90
16544;BME280;8384;47.996;7.786;2023-07-29T08:45:35;98374.97;;;22.98;78.26
16544;BME280;8384;47.996;7.786;2023-07-29T08:48:07;98386.38;;;23.21;77.26
16544;BME280;8384;47.996;7.786;2023-07-29T08:50:35;98368.13;;;23.52;75.26
16544;BME280;8384;47.996;7.786;2023-07-29T08:53:03;98386.50;;;23.69;74.33
16544;BME280;8384;47.996;7.786;2023-07-29T08:55:29;98386.97;;;23.71;73.76
16544;BME280;8384;47.996;7.786;2023-07-29T08:57:57;98400.34;;;23.49;74.56
16544;BME280;8384;47.996;7.786;2023-07-29T09:00:22;98392.16;;;23.41;73.67
16544;BME280;8384;47.996;7.786;2023-07-29T09:02:51;98399.06;;;23.18;75.91
16544;BME280;8384;47.996;7.786;2023-07-29T09:05:17;98379.66;;;23.22;75.07
16544;BME280;8384;47.996;7.786;2023-07-29T09:07:44;98393.00;;;23.29;76.69
16544;BME280;8384;47.996;7.786;2023-07-29T09:10:10;98394.94;;;23.41;74.92
16544;BME280;8384;47.996;7.786;2023-07-29T09:12:39;98389.50;;;23.32;76.01
16544;BME280;8384;47.996;7.786;2023-07-29T09:15:05;98397.59;;;23.37;75.36
16544;BME280;8384;47.996;7.786;2023-07-29T09:17:34;98394.81;;;23.37;73.21
16544;BME280;8384;47.996;7.786;2023-07-29T09:19:59;98400.16;;;23.42;73.14
16544;BME280;8384;47.996;7.786;2023-07-29T09:22:26;98383.28;;;23.10;74.89
16544;BME280;8384;47.996;7.786;2023-07-29T09:24:52;98389.44;;;23.16;75.46
16544;BME280;8384;47.996;7.786;2023-07-29T09:27:27;98390.31;;;23.32;73.82
16544;BME280;8384;47.996;7.786;2023-07-29T09:29:53;98378.66;;;23.43;73.37
16544;BME280;8384;47.996;7.786;2023-07-29T09:32:20;98378.00;;;23.33;71.50
16544;BME280;8384;47.996;7.786;2023-07-29T09:34:46;98374.38;;;23.33;69.53
16544;BME280;8384;47.996;7.786;2023-07-29T09:37:24;98375.50;;;23.44;67.72
16544;BME280;8384;47.996;7.786;2023-07-29T09:39:50;98388.09;;;23.54;67.92
16544;BME280;8384;47.996;7.786;2023-07-29T09:42:18;98382.44;;;23.50;67.39
16544;BME280;8384;47.996;7.786;2023-07-29T09:44:44;98398.75;;;23.64;68.56
16544;BME280;8384;47.996;7.786;2023-07-29T09:47:09;98384.44;;;23.66;68.71
16544;BME280;8384;47.996;7.786;2023-07-29T09:49:35;98377.78;;;23.87;67.51
16544;BME280;8384;47.996;7.786;2023-07-29T09:52:01;98386.06;;;23.83;67.29
16544;BME280;8384;47.996;7.786;2023-07-29T09:54:30;98382.13;;;23.84;65.72
16544;BME280;8384;47.996;7.786;2023-07-29T09:56:56;98386.34;;;23.94;67.00
16544;BME280;8384;47.996;7.786;2023-07-29T09:59:23;98406.25;;;24.40;65.71
16544;BME280;8384;47.996;7.786;2023-07-29T10:01:50;98389.09;;;24.22;66.50
16544;BME280;8384;47.996;7.786;2023-07-29T10:04:16;98414.16;;;23.74;65.36
16544;BME280;8384;47.996;7.786;2023-07-29T10:06:43;98396.69;;;23.61;66.77
16544;BME280;8384;47.996;7.786;2023-07-29T10:09:11;98390.69;;;23.91;66.66
16544;BME280;8384;47.996;7.786;2023-07-29T10:11:37;98403.38;;;23.89;66.01
16544;BME280;8384;47.996;7.786;2023-07-29T10:14:03;98396.81;;;23.97;66.24
16544;BME280;8384;47.996;7.786;2023-07-29T10:16:29;98400.63;;;23.60;66.62
16544;BME280;8384;47.996;7.786;2023-07-29T10:18:56;98388.09;;;23.54;67.40
16544;BME280;8384;47.996;7.786;2023-07-29T10:21:22;98382.41;;;23.34;67.68
16544;BME280;8384;47.996;7.786;2023-07-29T10:23:49;98395.84;;;23.61;68.28
16544;BME280;8384;47.996;7.786;2023-07-29T10:26:20;98403.50;;;23.64;67.73
16544;BME280;8384;47.996;7.786;2023-07-29T10:28:47;98398.47;;;23.54;66.08
16544;BME280;8384;47.996;7.786;2023-07-29T10:31:15;98400.53;;;24.01;65.51
16544;BME280;8384;47.996;7.786;2023-07-29T10:33:42;98385.63;;;23.81;65.35
16544;BME280;8384;47.996;7.786;2023-07-29T10:36:09;98392.19;;;23.89;66.24
16544;BME280;8384;47.996;7.786;2023-07-29T10:38:34;98388.50;;;24.49;63.47
16544;BME280;8384;47.996;7.786;2023-07-29T10:41:00;98398.41;;;25.18;62.39
16544;BME280;8384;47.996;7.786;2023-07-29T10:43:33;98404.22;;;25.28;60.69
16544;BME280;8384;47.996;7.786;2023-07-29T10:46:19;98407.69;;;25.02;60.94
16544;BME280;8384;47.996;7.786;2023-07-29T10:48:55;98404.94;;;25.88;58.85
16544;BME280;8384;47.996;7.786;2023-07-29T10:53:55;98426.06;;;25.23;57.56
16544;BME280;8384;47.996;7.786;2023-07-29T10:56:28;98403.16;;;24.97;58.15
16544;BME280;8384;47.996;7.786;2023-07-29T10:58:55;98411.09;;;24.60;58.74
16544;BME280;8384;47.996;7.786;2023-07-29T11:01:31;98414.13;;;24.70;58.17
16544;BME280;8384;47.996;7.786;2023-07-29T11:17:39;98386.53;;;25.87;54.13
16544;BME280;8384;47.996;7.786;2023-07-29T11:20:05;98374.81;;;25.58;53.99
16544;BME280;8384;47.996;7.786;2023-07-29T11:22:30;98383.72;;;25.64;55.30
16544;BME280;8384;47.996;7.786;2023-07-29T11:24:56;98364.56;;;25.89;55.13
16544;BME280;8384;47.996;7.786;2023-07-29T11:27:21;98368.44;;;26.27;54.34
16544;BME280;8384;47.996;7.786;2023-07-29T11:29:47;98348.44;;;26.29;53.36
16544;BME280;8384;47.996;7.786;2023-07-29T11:32:13;98387.75;;;25.66;53.62
16544;BME280;8384;47.996;7.786;2023-07-29T11:34:38;98385.03;;;25.93;54.47
16544;BME280;8384;47.996;7.786;2023-07-29T11:37:05;98376.00;;;26.54;52.93
16544;BME280;8384;47.996;7.786;2023-07-29T11:39:31;98367.56;;;26.50;51.89
16544;BME280;8384;47.996;7.786;2023-07-29T11:41:57;98380.75;;;26.23;52.64
16544;BME280;8384;47.996;7.786;2023-07-29T11:44:22;98383.06;;;26.17;52.64
16544;BME280;8384;47.996;7.786;2023-07-29T11:46:48;98360.22;;;26.42;50.90
16544;BME280;8384;47.996;7.786;2023-07-29T11:49:13;98377.91;;;26.19;52.35
16544;BME280;8384;47.996;7.786;2023-07-29T11:51:41;98369.72;;;25.87;51.38
16544;BME280;8384;47.996;7.786;2023-07-29T11:54:07;98371.13;;;25.73;50.80
16544;BME280;8384;47.996;7.786;2023-07-29T11:56:34;98361.06;;;25.96;50.24
16544;BME280;8384;47.996;7.786;2023-07-29T11:59:01;98351.50;;;25.97;50.59
16544;BME280;8384;47.996;7.786;2023-07-29T12:01:27;98330.34;;;25.76;52.49
16544;BME280;8384;47.996;7.786;2023-07-29T12:03:55;98349.16;;;25.75;50.89
16544;BME280;8384;47.996;7.786;2023-07-29T12:06:21;98335.78;;;25.88;49.97
16544;BME280;8384;47.996;7.786;2023-07-29T12:08:46;98324.91;;;26.10;49.66
16544;BME280;8384;47.996;7.786;2023-07-29T12:11:12;98325.81;;;26.41;49.92
16544;BME280;8384;47.996;7.786;2023-07-29T12:13:38;98322.19;;;26.41;48.82
16544;BME280;8384;47.996;7.786;2023-07-29T12:16:03;98350.50;;;26.62;49.50
16544;BME280;8384;47.996;7.786;2023-07-29T12:18:30;98357.09;;;26.47;50.21
16544;BME280;8384;47.996;7.786;2023-07-29T12:20:56;98321.94;;;25.99;50.27
16544;BME280;8384;47.996;7.786;2023-07-29T12:23:24;98348.66;;;25.93;52.16
16544;BME280;8384;47.996;7.786;2023-07-29T12:25:52;98347.41;;;26.14;51.47
16544;BME280;8384;47.996;7.786;2023-07-29T12:28:17;98355.41;;;25.45;52.35
16544;BME280;8384;47.996;7.786;2023-07-29T12:30:42;98351.38;;;25.66;52.33
16544;BME280;8384;47.996;7.786;2023-07-29T12:33:08;98349.75;;;25.65;51.89
16544;BME280;8384;47.996;7.786;2023-07-29T12:35:35;98337.88;;;25.72;51.76
16544;BME280;8384;47.996;7.786;2023-07-29T12:38:01;98356.34;;;25.53;53.32
16544;BME280;8384;47.996;7.786;2023-07-29T12:40:27;98352.81;;;25.37;54.17
16544;BME280;8384;47.996;7.786;2023-07-29T12:42:53;98361.47;;;25.28;54.78
16544;BME280;8384;47.996;7.786;2023-07-29T12:45:18;98342.91;;;25.20;54.51
16544;BME280;8384;47.996;7.786;2023-07-29T12:47:44;98354.69;;;25.29;54.50
16544;BME280;8384;47.996;7.786;2023-07-29T12:50:09;98344.59;;;25.24;54.92
16544;BME280;8384;47.996;7.786;2023-07-29T12:52:35;98347.47;;;25.08;55.86
16544;BME280;8384;47.996;7.786;2023-07-29T12:55:00;98329.59;;;25.13;54.52
16544;BME280;8384;47.996;7.786;2023-07-29T12:57:25;98330.31;;;24.90;54.82
16544;BME280;8384;47.996;7.786;2023-07-29T12:59:50;98352.56;;;25.03;53.96
16544;BME280;8384;47.996;7.786;2023-07-29T13:02:16;98369.94;;;25.12;54.98
16544;BME280;8384;47.996;7.786;2023-07-29T13:04:41;98358.44;;;24.97;54.73
16544;BME280;8384;47.996;7.786;2023-07-29T13:07:06;98353.78;;;25.05;54.72
16544;BME280;8384;47.996;7.786;2023-07-29T13:09:32;98365.50;;;25.30;53.48
16544;BME280;8384;47.996;7.786;2023-07-29T13:11:57;98372.25;;;25.29;54.59
16544;BME280;8384;47.996;7.786;2023-07-29T13:16:48;98372.13;;;25.42;52.86
16544;BME280;8384;47.996;7.786;2023-07-29T13:19:13;98358.44;;;25.80;53.25
16544;BME280;8384;47.996;7.786;2023-07-29T13:21:39;98362.25;;;25.28;54.43
16544;BME280;8384;47.996;7.786;2023-07-29T13:24:04;98374.47;;;25.40;54.67